Search for airport 
image banner adimage banner adimage banner ad
image banner ad

55CA - Naval Hospital Heliport

Located in Oakland, United States

ICAO - 55CA, IATA -

Data provided by Airmate  

General information

Coordinates: N37°41'40" W121°52'51"
Elevation is 422 feet MSL.
 
View others Airports in California

Operational data

Special qualification required
Current time UTC:
Current local time:
Weather at : KLVK - Livermore Muni ( 5 km )
METAR: KLVK 210053Z 06008KT 10SM CLR 30/03 A2991 RMK AO2 SLP126 T03000028
TAF: KLVK 202321Z 2100/2124 04009KT P6SM SKC FM210400 VRB05KT P6SM SKC FM212100 29009KT 6SM HZ FEW200
View NOTAMs / SUP AIP / TFR affecting this airport [VIEW]
Communications frequencies: [VIEW]

Runways:

Airport contact information

Address: Oakland United States

Satellite view of 55CA